Terminal Aerodrome Forecast
Issued by NWS

Home | Current Version | Previous Version | Graphics & Text | Print | Product List | Glossary On
Versions: 1 2 3 4 5 6 7 8 9 10 11 12 13
000
FTUS45 KGGW 211720
TAFSDY
TAF
KSDY 211720Z 2118/2218 10011KT P6SM BKN080
     FM212100 10015G25KT P6SM BKN060
     FM221100 14013G21KT P6SM BKN035
     FM221500 15011KT P6SM BKN020=

USA.gov is the U.S. government's official web portal to all federal, state and local government web resources and services.